Time;durP1;ratioP1;P1;durP2;ratioP2;P2;SDS_P1;SDS_P2;PMS_P1;PMS_P2;Temp;Humidity;BMP_temperature;BMP_pressure;BME280_temperature;BME280_humidity;BME280_pressure;Samples;Min_cycle;Max_cycle;Signal;HPM_P1;HPM_P2
2023/06/23 00:02:06;;;;;;;8.70;4.28;;;;;;;;;;4392020;32;70316;-58
2023/06/23 00:04:52;;;;;;;6.65;4.10;;;;;;;;;;4380972;32;69176;-58
2023/06/23 00:07:39;;;;;;;6.43;4.03;;;;;;;;;;4402698;32;66911;-58
2023/06/23 00:10:26;;;;;;;7.35;3.95;;;;;;;;;;4380290;32;59705;-62
2023/06/23 00:13:12;;;;;;;7.80;3.60;;;;;;;;;;4380804;32;69626;-59
2023/06/23 00:15:59;;;;;;;;;;;;;;;;;;4392052;32;68371;-59
2023/06/23 00:18:45;;;;;;;6.20;4.05;;;;;;;;;;4402358;32;67410;-58
2023/06/23 00:21:32;;;;;;;7.00;4.10;;;;;;;;;;4402229;32;71594;-59
2023/06/23 00:24:19;;;;;;;;;;;;;;;;;;4391670;32;65243;-58
2023/06/23 00:27:05;;;;;;;5.57;3.70;;;;;;;;;;4402247;32;67108;-58
2023/06/23 00:29:52;;;;;;;5.82;3.40;;;;;;;;;;4391753;32;60397;-57
2023/06/23 00:32:40;;;;;;;7.50;3.72;;;;;;;;;;4379084;32;71274;-59
2023/06/23 00:35:26;;;;;;;7.82;4.15;;;;;;;;;;4391155;32;65988;-58
2023/06/23 00:38:13;;;;;;;5.25;3.28;;;;;;;;;;4413955;32;67013;-58
2023/06/23 00:41:00;;;;;;;6.85;3.60;;;;;;;;;;4380231;32;59186;-59
2023/06/23 00:43:50;;;;;;;5.32;3.28;;;;;;;;;;4377744;32;68322;-57
2023/06/23 00:46:37;;;;;;;5.37;3.42;;;;;;;;;;4391150;32;68289;-58
2023/06/23 00:49:24;;;;;;;8.00;3.70;;;;;;;;;;4391207;32;67776;-59
2023/06/23 00:52:11;;;;;;;6.32;3.70;;;;;;;;;;4388153;32;71963;-58
2023/06/23 00:54:59;;;;;;;5.10;3.30;;;;;;;;;;4380589;32;66260;-57
2023/06/23 00:57:50;;;;;;;5.95;3.58;;;;;;;;;;4401699;32;69330;-58
2023/06/23 01:00:37;;;;;;;6.87;3.58;;;;;;;;;;4378044;32;66653;-59
2023/06/23 01:03:24;;;;;;;5.32;3.55;;;;;;;;;;4392603;32;71912;-59
2023/06/23 01:06:20;;;;;;;5.15;3.60;;;;;;;;;;4402110;32;66032;-59
2023/06/23 01:09:12;;;;;;;8.45;4.20;;;;;;;;;;4401647;32;68174;-58
2023/06/23 01:12:13;;;;;;;5.60;3.78;;;;;;;;;;4401945;32;60076;-57
2023/06/23 01:15:07;;;;;;;6.03;3.90;;;;;;;;;;4380201;32;70757;-59
2023/06/23 01:17:57;;;;;;;7.20;3.80;;;;;;;;;;4401886;32;68291;-58
2023/06/23 01:20:46;;;;;;;7.28;3.70;;;;;;;;;;4377624;32;67914;-58
2023/06/23 01:23:45;;;;;;;7.93;4.12;;;;;;;;;;4378148;32;61145;-60
2023/06/23 01:26:57;;;;;;;5.28;3.47;;;;;;;;;;4401727;32;69476;-59
2023/06/23 01:29:47;;;;;;;8.20;4.15;;;;;;;;;;4380159;32;69528;-60
2023/06/23 01:32:42;;;;;;;7.62;4.50;;;;;;;;;;4391742;32;67718;-58
2023/06/23 01:35:30;;;;;;;6.68;4.35;;;;;;;;;;4393609;32;70872;-59
2023/06/23 01:38:40;;;;;;;8.73;4.20;;;;;;;;;;4390604;32;65869;-58
2023/06/23 01:41:32;;;;;;;6.97;3.80;;;;;;;;;;4390802;32;66733;-58
2023/06/23 01:44:22;;;;;;;9.32;3.78;;;;;;;;;;4380194;32;59209;-61
2023/06/23 01:47:34;;;;;;;6.07;3.90;;;;;;;;;;4401359;32;70596;-58
2023/06/23 01:50:21;;;;;;;6.15;3.75;;;;;;;;;;4377316;32;66642;-58
2023/06/23 01:53:10;;;;;;;8.55;4.30;;;;;;;;;;4367993;32;68441;-59
2023/06/23 01:55:59;;;;;;;6.95;4.18;;;;;;;;;;4395628;32;59091;-60
2023/06/23 01:58:47;;;;;;;6.80;4.00;;;;;;;;;;4379850;32;72030;-59
2023/06/23 02:01:35;;;;;;;6.40;4.15;;;;;;;;;;4393031;32;69145;-59
2023/06/23 02:04:22;;;;;;;8.30;4.12;;;;;;;;;;4393182;32;67926;-58
2023/06/23 02:07:11;;;;;;;6.22;3.95;;;;;;;;;;4403716;32;71589;-58
2023/06/23 02:09:58;;;;;;;8.27;4.35;;;;;;;;;;4381309;32;67212;-59
2023/06/23 02:12:45;;;;;;;8.13;4.18;;;;;;;;;;4381660;32;68310;-58
2023/06/23 02:15:33;;;;;;;8.23;4.30;;;;;;;;;;4369167;32;67990;-58
2023/06/23 02:18:21;;;;;;;6.93;4.30;;;;;;;;;;4392797;32;71614;-59
2023/06/23 02:21:06;;;;;;;6.95;4.07;;;;;;;;;;3847565;37;43865;-58
2023/06/23 02:23:54;;;;;;;7.55;4.47;;;;;;;;;;4399407;32;60242;-60
2023/06/23 02:26:41;;;;;;;6.87;4.10;;;;;;;;;;4376957;32;70672;-59
2023/06/23 02:29:29;;;;;;;10.25;4.20;;;;;;;;;;4398563;32;69763;-58
2023/06/23 02:32:17;;;;;;;7.87;4.00;;;;;;;;;;4399094;32;67553;-59
2023/06/23 02:35:05;;;;;;;7.30;3.85;;;;;;;;;;4377612;32;72463;-58
2023/06/23 02:38:03;;;;;;;7.15;4.10;;;;;;;;;;4409855;32;64924;-59
2023/06/23 02:40:51;;;;;;;7.37;4.30;;;;;;;;;;4387343;32;67907;-58
2023/06/23 02:43:54;;;;;;;7.80;4.25;;;;;;;;;;4388282;32;59072;-58
2023/06/23 02:46:44;;;;;;;6.95;4.30;;;;;;;;;;4399210;32;71812;-58
2023/06/23 02:49:30;;;;;;;6.53;4.40;;;;;;;;;;4388949;32;66794;-59
2023/06/23 02:52:19;;;;;;;7.12;4.35;;;;;;;;;;4387784;32;67944;-59
2023/06/23 02:55:08;;;;;;;6.40;4.10;;;;;;;;;;4399033;32;60306;-59
2023/06/23 02:57:56;;;;;;;6.35;3.95;;;;;;;;;;4409306;32;70135;-58
2023/06/23 03:00:44;;;;;;;5.85;3.80;;;;;;;;;;4387913;32;68938;-58
2023/06/23 03:03:33;;;;;;;9.27;4.30;;;;;;;;;;4409435;32;67582;-59
2023/06/23 03:06:23;;;;;;;7.40;4.43;;;;;;;;;;4409507;32;71659;-58
2023/06/23 03:09:11;;;;;;;7.28;3.55;;;;;;;;;;4399327;32;66154;-58
2023/06/23 03:11:57;;;;;;;6.10;3.80;;;;;;;;;;4387904;32;68396;-58
2023/06/23 03:14:45;;;;;;;7.22;3.95;;;;;;;;;;4398922;32;66623;-58
2023/06/23 03:17:32;;;;;;;4.87;2.87;;;;;;;;;;4379395;32;71756;-60
2023/06/23 03:20:30;;;;;;;4.57;2.90;;;;;;;;;;4379585;32;63746;-59
2023/06/23 03:23:17;;;;;;;4.62;2.85;;;;;;;;;;4399211;32;66881;-58
2023/06/23 03:26:07;;;;;;;5.32;3.35;;;;;;;;;;4409980;32;59216;-59
2023/06/23 03:28:56;;;;;;;5.25;3.47;;;;;;;;;;4398928;32;70495;-58
2023/06/23 03:31:44;;;;;;;6.03;3.80;;;;;;;;;;4392555;32;68447;-58
2023/06/23 03:34:44;;;;;;;6.12;3.08;;;;;;;;;;4378794;32;68161;-63
2023/06/23 03:37:32;;;;;;;5.32;3.22;;;;;;;;;;4389856;32;60421;-58
2023/06/23 03:40:20;;;;;;;7.28;3.70;;;;;;;;;;4389182;32;70730;-59
2023/06/23 03:43:15;;;;;;;7.65;4.00;;;;;;;;;;4389908;32;69233;-59
2023/06/23 03:46:09;;;;;;;7.55;3.72;;;;;;;;;;4400770;32;68091;-59
2023/06/23 03:48:58;;;;;;;6.82;3.60;;;;;;;;;;4391714;32;71358;-59
2023/06/23 03:51:47;;;;;;;5.20;3.25;;;;;;;;;;4411257;32;64751;-58
2023/06/23 03:54:34;;;;;;;7.20;3.22;;;;;;;;;;4397595;32;66451;-58
2023/06/23 03:57:26;;;;;;;5.18;2.80;;;;;;;;;;4379876;32;61325;-65
2023/06/23 04:00:14;;;;;;;5.87;3.35;;;;;;;;;;4390562;32;69846;-59
2023/06/23 04:03:01;;;;;;;6.03;2.97;;;;;;;;;;4392559;32;64863;-60
2023/06/23 04:05:49;;;;;;;4.70;2.95;;;;;;;;;;4402074;32;67029;-60
2023/06/23 04:08:37;;;;;;;5.72;3.12;;;;;;;;;;4383039;32;60731;-59
2023/06/23 04:11:25;;;;;;;5.95;3.30;;;;;;;;;;4397428;32;69411;-58
2023/06/23 04:14:13;;;;;;;7.18;3.60;;;;;;;;;;4391524;32;68880;-60
2023/06/23 04:17:00;;;;;;;6.37;3.92;;;;;;;;;;4391458;32;64991;-59
2023/06/23 04:19:49;;;;;;;7.53;4.00;;;;;;;;;;4378459;32;71835;-58
2023/06/23 04:22:37;;;;;;;7.28;4.60;;;;;;;;;;4388862;32;66420;-58
2023/06/23 04:25:26;;;;;;;8.77;4.32;;;;;;;;;;4388397;32;67705;-59
2023/06/23 04:28:13;;;;;;;7.93;4.18;;;;;;;;;;4387725;32;66726;-60
2023/06/23 04:31:03;;;;;;;8.10;4.45;;;;;;;;;;4388404;32;71409;-59
2023/06/23 04:33:50;;;;;;;8.30;4.55;;;;;;;;;;4383686;32;66749;-58
2023/06/23 04:37:10;;;;;;;8.23;4.30;;;;;;;;;;4387401;32;67450;-59
2023/06/23 04:39:58;;;;;;;7.90;5.07;;;;;;;;;;4398091;32;59182;-58
2023/06/23 04:42:53;;;;;;;11.00;5.55;;;;;;;;;;4375775;32;70183;-59
2023/06/23 04:45:53;;;;;;;9.43;5.55;;;;;;;;;;4386709;32;68961;-62
2023/06/23 04:48:46;;;;;;;8.27;4.78;;;;;;;;;;4386718;32;68355;-58
2023/06/23 04:51:37;;;;;;;6.55;3.80;;;;;;;;;;4398335;32;60226;-59
2023/06/23 04:54:27;;;;;;;7.10;3.97;;;;;;;;;;4386647;32;70211;-59
2023/06/23 04:57:20;;;;;;;8.70;4.40;;;;;;;;;;4386973;32;70230;-58
2023/06/23 05:00:09;;;;;;;9.00;4.78;;;;;;;;;;4397888;32;66751;-59
2023/06/23 05:02:58;;;;;;;8.18;5.22;;;;;;;;;;4386838;32;72009;-58
2023/06/23 05:05:45;;;;;;;6.55;4.43;;;;;;;;;;4387733;32;64869;-58
2023/06/23 05:08:33;;;;;;;8.80;4.75;;;;;;;;;;4387206;32;67917;-58
2023/06/23 05:11:19;;;;;;;5.68;3.05;;;;;;;;;;4376812;32;60780;-58
2023/06/23 05:14:07;;;;;;;7.53;4.07;;;;;;;;;;4386645;32;71606;-58
2023/06/23 05:16:55;;;;;;;7.10;4.45;;;;;;;;;;4399789;32;64846;-58
2023/06/23 05:19:47;;;;;;;7.40;4.95;;;;;;;;;;4386164;32;67184;-59
2023/06/23 05:22:36;;;;;;;6.65;4.10;;;;;;;;;;4386493;32;59938;-59
2023/06/23 05:25:29;;;;;;;5.30;3.05;;;;;;;;;;4387089;32;69666;-59
2023/06/23 05:28:16;;;;;;;6.90;4.07;;;;;;;;;;4387545;32;68179;-58
2023/06/23 05:31:04;;;;;;;4.87;3.03;;;;;;;;;;4386606;32;68163;-59
2023/06/23 05:33:51;;;;;;;5.85;3.40;;;;;;;;;;4397393;32;71685;-58
2023/06/23 05:36:38;;;;;;;6.47;4.07;;;;;;;;;;4386769;32;66042;-58
2023/06/23 05:39:27;;;;;;;5.37;3.45;;;;;;;;;;4387022;32;67584;-58
2023/06/23 05:42:14;;;;;;;5.28;3.17;;;;;;;;;;4377102;32;66860;-58
2023/06/23 05:45:01;;;;;;;;;;;;;;;;;;4387002;32;71818;-57
2023/06/23 05:48:02;;;;;;;6.60;3.97;;;;;;;;;;4365485;32;65980;-58
2023/06/23 05:50:49;;;;;;;6.15;3.58;;;;;;;;;;4397443;32;67475;-58
2023/06/23 05:53:37;;;;;;;7.18;3.97;;;;;;;;;;4387039;32;59310;-58
2023/06/23 05:56:33;;;;;;;5.95;3.28;;;;;;;;;;4397294;32;69606;-58
2023/06/23 05:59:24;;;;;;;5.62;3.62;;;;;;;;;;4386872;32;69460;-57
2023/06/23 06:02:18;;;;;;;6.78;4.15;;;;;;;;;;4386771;32;66560;-58
2023/06/23 06:05:07;;;;;;;8.05;4.12;;;;;;;;;;4376211;32;71443;-58
2023/06/23 06:07:57;;;;;;;5.70;4.12;;;;;;;;;;4398868;32;70974;-58
2023/06/23 06:10:44;;;;;;;6.95;4.22;;;;;;;;;;4400499;32;69245;-58
2023/06/23 06:13:34;;;;;;;6.97;4.37;;;;;;;;;;4378012;32;66464;-58
2023/06/23 06:16:22;;;;;;;7.25;4.82;;;;;;;;;;4386443;32;71918;-58
2023/06/23 06:19:09;;;;;;;6.87;4.00;;;;;;;;;;4386260;32;66114;-58
2023/06/23 06:21:56;;;;;;;6.20;3.47;;;;;;;;;;4386673;32;67571;-58
2023/06/23 06:24:44;;;;;;;5.22;3.15;;;;;;;;;;4397374;32;59117;-58
2023/06/23 06:27:33;;;;;;;14.35;6.25;;;;;;;;;;4397067;32;70606;-58
2023/06/23 06:30:21;;;;;;;8.07;3.58;;;;;;;;;;4385384;32;70071;-58
2023/06/23 06:33:09;;;;;;;5.32;3.05;;;;;;;;;;4375096;32;68681;-57
2023/06/23 06:35:58;;;;;;;5.35;3.20;;;;;;;;;;4386340;32;60165;-58
2023/06/23 06:38:47;;;;;;;6.70;3.30;;;;;;;;;;4364806;32;70350;-59
2023/06/23 06:44:14;;;;;;;8.95;3.62;;;;;;;;;;3869185;36;43603;-58
2023/06/23 06:47:04;;;;;;;6.80;2.83;;;;;;;;;;4391897;32;58292;-58
2023/06/23 06:49:52;;;;;;;6.12;3.08;;;;;;;;;;4416429;32;68911;-59
2023/06/23 06:52:40;;;;;;;5.80;3.22;;;;;;;;;;4391760;32;67446;-59
2023/06/23 06:55:27;;;;;;;4.62;2.83;;;;;;;;;;4405120;32;67630;-59
2023/06/23 06:58:15;;;;;;;5.53;2.72;;;;;;;;;;4390136;32;70270;-59
2023/06/23 07:01:01;;;;;;;5.93;2.92;;;;;;;;;;4400832;32;64009;-58
2023/06/23 07:03:49;;;;;;;4.78;2.90;;;;;;;;;;4400968;32;65445;-59
2023/06/23 07:06:36;;;;;;;;;;;;;;;;;;4379824;32;60273;-59
2023/06/23 07:09:23;;;;;;;5.00;3.00;;;;;;;;;;4414566;32;71918;-58
2023/06/23 07:12:09;;;;;;;;;;;;;;;;;;4414734;32;64905;-58
2023/06/23 07:14:56;;;;;;;5.50;3.55;;;;;;;;;;4400808;32;66436;-58
2023/06/23 07:17:43;;;;;;;5.78;3.78;;;;;;;;;;4426324;32;60573;-58
2023/06/23 07:20:29;;;;;;;4.93;3.30;;;;;;;;;;4413969;32;69630;-58
2023/06/23 07:23:16;;;;;;;;;;;;;;;;;;4390067;32;68368;-58
2023/06/23 07:26:03;;;;;;;6.25;3.80;;;;;;;;;;4426087;32;67547;-58
2023/06/23 07:28:49;;;;;;;7.30;3.78;;;;;;;;;;4400581;32;69501;-59
2023/06/23 07:31:37;;;;;;;5.45;2.87;;;;;;;;;;4390639;32;64735;-59
2023/06/23 07:34:24;;;;;;;8.30;4.22;;;;;;;;;;4403172;32;68533;-58
2023/06/23 07:37:11;;;;;;;7.70;4.55;;;;;;;;;;4392478;32;67778;-57
2023/06/23 07:39:57;;;;;;;6.93;3.83;;;;;;;;;;4389594;32;69531;-57
2023/06/23 07:42:45;;;;;;;7.05;4.55;;;;;;;;;;4402728;32;65943;-58
2023/06/23 07:45:31;;;;;;;6.45;4.20;;;;;;;;;;4392398;32;68060;-58
2023/06/23 07:48:18;;;;;;;;;;;;;;;;;;4379586;32;57899;-57
2023/06/23 07:51:04;;;;;;;6.95;4.10;;;;;;;;;;4402845;32;70147;-58
2023/06/23 07:53:51;;;;;;;8.02;3.90;;;;;;;;;;4400057;32;69459;-58
2023/06/23 07:56:38;;;;;;;;;;;;;;;;;;4393436;32;68109;-59
2023/06/23 07:59:28;;;;;;;7.15;4.55;;;;;;;;;;4390382;32;58587;-58
2023/06/23 08:02:14;;;;;;;5.82;3.60;;;;;;;;;;4403714;32;70681;-57
2023/06/23 08:05:02;;;;;;;7.28;4.05;;;;;;;;;;4392721;32;68266;-58
2023/06/23 08:07:48;;;;;;;;;;;;;;;;;;4392933;32;68099;-59
2023/06/23 08:10:35;;;;;;;6.03;3.70;;;;;;;;;;4400960;32;69897;-59
2023/06/23 08:13:22;;;;;;;7.32;4.15;;;;;;;;;;4385692;32;64829;-59
2023/06/23 08:16:10;;;;;;;6.60;4.30;;;;;;;;;;4392705;32;67556;-59
2023/06/23 08:18:56;;;;;;;8.75;4.40;;;;;;;;;;4392517;32;60187;-58
2023/06/23 08:21:43;;;;;;;9.65;4.35;;;;;;;;;;4381805;32;69346;-59
2023/06/23 08:24:30;;;;;;;5.43;3.92;;;;;;;;;;4403001;32;65075;-58
2023/06/23 08:27:16;;;;;;;;;;;;;;;;;;4379636;32;66264;-57
2023/06/23 08:30:03;;;;;;;6.87;3.62;;;;;;;;;;4403483;32;60104;-58
2023/06/23 08:32:50;;;;;;;5.40;3.50;;;;;;;;;;4392037;32;70193;-59
2023/06/23 08:35:37;;;;;;;6.40;4.43;;;;;;;;;;4392117;32;68260;-58
2023/06/23 08:38:25;;;;;;;6.00;4.00;;;;;;;;;;4403090;32;66943;-58
2023/06/23 08:41:12;;;;;;;8.07;4.53;;;;;;;;;;4381091;32;71285;-58
2023/06/23 08:44:01;;;;;;;6.43;4.00;;;;;;;;;;4404862;32;66392;-58
2023/06/23 08:46:52;;;;;;;7.35;4.07;;;;;;;;;;4393787;32;67465;-58
2023/06/23 08:49:41;;;;;;;5.28;3.55;;;;;;;;;;4405895;32;67558;-58
2023/06/23 08:52:27;;;;;;;6.62;4.43;;;;;;;;;;4393167;32;71017;-58
2023/06/23 08:55:15;;;;;;;6.20;4.45;;;;;;;;;;4381360;32;64816;-59
2023/06/23 08:58:05;;;;;;;5.37;3.50;;;;;;;;;;4381463;32;66773;-59
2023/06/23 09:00:53;;;;;;;8.05;4.10;;;;;;;;;;4392618;32;60547;-58
2023/06/23 09:03:40;;;;;;;8.65;4.53;;;;;;;;;;4389136;32;69322;-58
2023/06/23 09:06:26;;;;;;;;;;;;;;;;;;4388662;32;70412;-59
2023/06/23 09:09:13;;;;;;;7.25;4.50;;;;;;;;;;4402714;32;67927;-57
2023/06/23 09:11:59;;;;;;;;;;;;;;;;;;4400663;32;59685;-57
2023/06/23 09:14:48;;;;;;;5.97;4.40;;;;;;;;;;4391736;32;70155;-59
2023/06/23 09:17:35;;;;;;;6.45;4.25;;;;;;;;;;4391731;32;69382;-58
2023/06/23 09:20:22;;;;;;;8.35;4.40;;;;;;;;;;4378408;32;68347;-58
2023/06/23 09:23:14;;;;;;;5.70;4.10;;;;;;;;;;4381071;32;70740;-58
2023/06/23 09:26:04;;;;;;;5.68;4.05;;;;;;;;;;4388933;32;65757;-58
2023/06/23 09:28:52;;;;;;;6.30;4.05;;;;;;;;;;4381235;32;66903;-58
2023/06/23 09:31:41;;;;;;;10.68;4.90;;;;;;;;;;4414606;32;60119;-57
2023/06/23 09:34:36;;;;;;;6.60;4.12;;;;;;;;;;4368026;32;71117;-57
2023/06/23 09:37:23;;;;;;;4.37;2.95;;;;;;;;;;4391602;32;66178;-58
2023/06/23 09:40:10;;;;;;;4.53;2.90;;;;;;;;;;4378730;32;68235;-59
2023/06/23 09:42:58;;;;;;;5.35;3.90;;;;;;;;;;4378587;32;58127;-63
2023/06/23 09:45:45;;;;;;;6.90;4.03;;;;;;;;;;4370245;32;71605;-57
2023/06/23 09:48:32;;;;;;;;;;;;;;;;;;4392597;32;69798;-61
2023/06/23 09:51:19;;;;;;;6.80;4.57;;;;;;;;;;4389386;32;67500;-59
2023/06/23 09:54:06;;;;;;;6.65;4.50;;;;;;;;;;4381085;32;71528;-59
2023/06/23 09:57:15;;;;;;;6.03;3.12;;;;;;;;;;4389252;32;64212;-59
2023/06/23 10:00:03;;;;;;;5.87;4.45;;;;;;;;;;4388864;32;68174;-57
2023/06/23 10:02:53;;;;;;;8.25;4.20;;;;;;;;;;4368018;32;68490;-59
2023/06/23 10:05:40;;;;;;;;;;;;;;;;;;4391478;32;71866;-58
2023/06/23 10:08:26;;;;;;;6.00;3.75;;;;;;;;;;4414116;32;66192;-58
2023/06/23 10:11:17;;;;;;;6.25;4.40;;;;;;;;;;4380940;32;66549;-59
2023/06/23 10:14:06;;;;;;;4.87;3.80;;;;;;;;;;4382591;32;59327;-59
2023/06/23 10:16:57;;;;;;;5.85;3.90;;;;;;;;;;4402359;32;69382;-58
2023/06/23 10:19:48;;;;;;;4.90;3.47;;;;;;;;;;4391856;32;68579;-58
2023/06/23 10:22:37;;;;;;;5.32;3.40;;;;;;;;;;4402140;32;67530;-58
2023/06/23 10:25:26;;;;;;;5.53;3.65;;;;;;;;;;4391212;32;71675;-58
2023/06/23 10:28:13;;;;;;;4.53;2.95;;;;;;;;;;4407510;32;70584;-57
2023/06/23 10:31:01;;;;;;;5.15;3.10;;;;;;;;;;4367416;32;69028;-58
2023/06/23 10:33:49;;;;;;;5.10;3.70;;;;;;;;;;4401647;32;66786;-57
2023/06/23 10:36:40;;;;;;;5.35;2.72;;;;;;;;;;4388369;32;71983;-57
2023/06/23 10:39:27;;;;;;;4.93;3.05;;;;;;;;;;4388139;32;64838;-56
2023/06/23 10:42:13;;;;;;;;;;;;;;;;;;4390931;32;67617;-57
2023/06/23 10:45:01;;;;;;;4.22;2.70;;;;;;;;;;4402035;32;59649;-57
2023/06/23 10:47:48;;;;;;;4.53;2.83;;;;;;;;;;4366693;32;71709;-58
2023/06/23 10:50:35;;;;;;;5.00;2.83;;;;;;;;;;4390534;32;69517;-58
2023/06/23 10:53:28;;;;;;;4.10;2.87;;;;;;;;;;4413285;32;66775;-58
2023/06/23 10:56:48;;;;;;;5.68;2.85;;;;;;;;;;4377733;32;60810;-58
2023/06/23 10:59:34;;;;;;;4.45;2.85;;;;;;;;;;4401212;32;70398;-57
2023/06/23 11:02:23;;;;;;;4.12;2.50;;;;;;;;;;4390676;32;69007;-59
2023/06/23 11:05:16;;;;;;;3.92;2.28;;;;;;;;;;4377280;32;68439;-58
2023/06/23 11:08:05;;;;;;;2.85;2.15;;;;;;;;;;4388209;32;72228;-58
2023/06/23 11:10:57;;;;;;;6.40;2.53;;;;;;;;;;4390456;32;64871;-58
2023/06/23 11:13:49;;;;;;;5.55;2.80;;;;;;;;;;4401405;32;67462;-57
2023/06/23 11:16:40;;;;;;;8.82;3.42;;;;;;;;;;4379916;32;59106;-58
2023/06/23 11:19:35;;;;;;;4.65;2.80;;;;;;;;;;4378158;32;72401;-58
2023/06/23 11:22:22;;;;;;;4.80;2.78;;;;;;;;;;4390545;32;66108;-58
2023/06/23 11:25:09;;;;;;;4.70;2.47;;;;;;;;;;4390502;32;67959;-59
2023/06/23 11:28:23;;;;;;;4.05;2.70;;;;;;;;;;4387971;32;60392;-59
2023/06/23 11:31:15;;;;;;;4.18;2.62;;;;;;;;;;4401132;32;70005;-57
2023/06/23 11:34:03;;;;;;;4.10;2.58;;;;;;;;;;4392941;32;69010;-59
2023/06/23 11:36:50;;;;;;;4.57;1.92;;;;;;;;;;4390264;32;68234;-59
2023/06/23 11:39:37;;;;;;;3.70;2.47;;;;;;;;;;4393764;32;71890;-58
2023/06/23 11:42:24;;;;;;;4.55;2.60;;;;;;;;;;4403995;32;70563;-58
2023/06/23 11:45:11;;;;;;;3.12;2.03;;;;;;;;;;4405465;32;68033;-58
2023/06/23 11:47:57;;;;;;;;;;;;;;;;;;4417399;32;66755;-58
2023/06/23 11:50:44;;;;;;;4.43;2.60;;;;;;;;;;4406338;32;70936;-58
2023/06/23 11:53:30;;;;;;;;;;;;;;;;;;4404939;32;64873;-58
2023/06/23 11:56:18;;;;;;;4.05;2.70;;;;;;;;;;4383130;32;67026;-58
2023/06/23 11:59:05;;;;;;;3.55;2.60;;;;;;;;;;4393612;32;60121;-61
2023/06/23 12:01:52;;;;;;;;;;;;;;;;;;4394674;32;71230;-57
2023/06/23 12:04:39;;;;;;;3.80;2.85;;;;;;;;;;4393989;32;69564;-58
2023/06/23 12:07:28;;;;;;;5.93;2.90;;;;;;;;;;4409402;32;67122;-59
2023/06/23 12:10:16;;;;;;;5.80;2.30;;;;;;;;;;4401384;32;57979;-58
2023/06/23 12:13:08;;;;;;;3.50;2.60;;;;;;;;;;4373930;32;69669;-58
2023/06/23 12:15:55;;;;;;;2.85;2.25;;;;;;;;;;4406834;32;69502;-59
2023/06/23 12:18:46;;;;;;;3.62;2.62;;;;;;;;;;4380691;32;68202;-60
2023/06/23 12:21:35;;;;;;;3.25;2.58;;;;;;;;;;4393148;32;71541;-57
2023/06/23 12:24:21;;;;;;;3.90;2.80;;;;;;;;;;4379060;32;66508;-58
2023/06/23 12:27:12;;;;;;;3.47;2.08;;;;;;;;;;4382465;32;68392;-59
2023/06/23 12:30:16;;;;;;;3.83;2.58;;;;;;;;;;4393130;32;59810;-59
2023/06/23 12:33:03;;;;;;;4.12;2.75;;;;;;;;;;4392988;32;70678;-58
2023/06/23 12:36:00;;;;;;;6.15;2.90;;;;;;;;;;4379469;32;67087;-58
2023/06/23 12:38:55;;;;;;;4.18;2.70;;;;;;;;;;4392243;32;67555;-58
2023/06/23 12:41:42;;;;;;;3.87;2.20;;;;;;;;;;4368338;32;60962;-59
2023/06/23 12:44:32;;;;;;;;;;;;;;;;;;4401580;32;69813;-59
2023/06/23 12:47:19;;;;;;;3.97;3.05;;;;;;;;;;4382781;32;68452;-59
2023/06/23 12:50:10;;;;;;;4.45;2.80;;;;;;;;;;4368760;32;67567;-59
2023/06/23 12:52:57;;;;;;;3.17;2.03;;;;;;;;;;4403184;32;70863;-58
2023/06/23 12:55:45;;;;;;;3.72;2.80;;;;;;;;;;4379365;32;66987;-58
2023/06/23 12:58:31;;;;;;;4.05;2.58;;;;;;;;;;4391978;32;68342;-58
2023/06/23 13:01:19;;;;;;;4.22;2.80;;;;;;;;;;4402884;32;67322;-58
2023/06/23 13:04:05;;;;;;;;;;;;;;;;;;4392087;32;71569;-58
2023/06/23 13:06:52;;;;;;;7.62;3.10;;;;;;;;;;4414766;32;65372;-59
2023/06/23 13:09:39;;;;;;;3.00;2.10;;;;;;;;;;4367858;32;67293;-59
2023/06/23 13:12:26;;;;;;;6.65;3.00;;;;;;;;;;4392210;32;59944;-58
2023/06/23 13:15:13;;;;;;;;;;;;;;;;;;4392221;32;69640;-58
2023/06/23 13:18:00;;;;;;;4.50;2.83;;;;;;;;;;4402724;32;69164;-59
2023/06/23 13:20:46;;;;;;;5.35;2.25;;;;;;;;;;4378426;32;68650;-59
2023/06/23 13:23:33;;;;;;;3.97;2.28;;;;;;;;;;4402781;32;59203;-59
2023/06/23 13:26:20;;;;;;;3.05;2.22;;;;;;;;;;4402369;32;70836;-57
2023/06/23 13:29:07;;;;;;;3.25;2.05;;;;;;;;;;4391784;32;68472;-57
2023/06/23 13:31:54;;;;;;;5.40;2.40;;;;;;;;;;4368852;32;68292;-57
2023/06/23 13:34:41;;;;;;;3.60;2.60;;;;;;;;;;4377964;32;72537;-58
2023/06/23 13:37:28;;;;;;;;;;;;;;;;;;4381268;32;66314;-57
2023/06/23 13:40:15;;;;;;;2.67;1.93;;;;;;;;;;4391987;32;67086;-58
2023/06/23 13:43:01;;;;;;;3.70;2.12;;;;;;;;;;4414361;32;60366;-58
2023/06/23 13:45:49;;;;;;;4.47;2.37;;;;;;;;;;4367210;32;71063;-58
2023/06/23 13:48:35;;;;;;;3.17;2.20;;;;;;;;;;4388959;32;66957;-57
2023/06/23 13:51:22;;;;;;;5.68;2.53;;;;;;;;;;4380718;32;68147;-58
2023/06/23 13:54:10;;;;;;;5.22;2.45;;;;;;;;;;4367906;32;57478;-58
2023/06/23 13:56:56;;;;;;;2.58;1.98;;;;;;;;;;4402219;32;70648;-59
2023/06/23 13:59:43;;;;;;;;;;;;;;;;;;4378428;32;70432;-61
2023/06/23 14:02:30;;;;;;;2.55;1.75;;;;;;;;;;4402299;32;68012;-57
2023/06/23 14:05:16;;;;;;;3.55;2.15;;;;;;;;;;4399317;32;72434;-59
2023/06/23 14:08:03;;;;;;;3.00;2.12;;;;;;;;;;4381316;32;66200;-59
2023/06/23 14:10:50;;;;;;;3.08;2.20;;;;;;;;;;4380532;32;69443;-58
2023/06/23 14:13:36;;;;;;;;;;;;;;;;;;4391629;32;68408;-59
2023/06/23 14:16:23;;;;;;;4.62;2.20;;;;;;;;;;4395150;32;71364;-58
2023/06/23 14:19:10;;;;;;;3.33;2.40;;;;;;;;;;4399596;32;66476;-57
2023/06/23 14:21:56;;;;;;;;;;;;;;;;;;4402198;32;68038;-58
2023/06/23 14:24:44;;;;;;;4.53;2.50;;;;;;;;;;4402072;32;59784;-60
2023/06/23 14:27:31;;;;;;;4.10;2.37;;;;;;;;;;4377831;32;70215;-59
2023/06/23 14:30:17;;;;;;;;;;;;;;;;;;4378183;32;67619;-59
2023/06/23 14:33:06;;;;;;;3.28;2.10;;;;;;;;;;4401950;32;67138;-59
2023/06/23 14:35:52;;;;;;;2.87;1.60;;;;;;;;;;4377917;32;59793;-59
2023/06/23 14:38:39;;;;;;;;;;;;;;;;;;4413960;32;69775;-58
2023/06/23 14:41:25;;;;;;;4.47;2.12;;;;;;;;;;4401470;32;69747;-59
2023/06/23 14:44:12;;;;;;;3.17;1.50;;;;;;;;;;4377657;32;68199;-59
2023/06/23 14:46:59;;;;;;;3.22;1.85;;;;;;;;;;4414247;32;70692;-58
2023/06/23 14:49:46;;;;;;;2.30;1.70;;;;;;;;;;4388268;32;65872;-58
2023/06/23 14:52:33;;;;;;;3.55;2.08;;;;;;;;;;4388212;32;68392;-59
2023/06/23 14:55:20;;;;;;;3.08;2.00;;;;;;;;;;4401549;32;59872;-58
2023/06/23 14:58:07;;;;;;;3.05;1.90;;;;;;;;;;4401325;32;70700;-58
2023/06/23 15:00:53;;;;;;;3.05;1.60;;;;;;;;;;4390669;32;66027;-58
2023/06/23 15:03:40;;;;;;;;;;;;;;;;;;4391263;32;67116;-58
2023/06/23 15:06:27;;;;;;;3.75;2.03;;;;;;;;;;4390956;32;59597;-60
2023/06/23 15:09:13;;;;;;;3.65;2.35;;;;;;;;;;4382838;32;69353;-58
2023/06/23 15:12:00;;;;;;;2.70;2.00;;;;;;;;;;4393686;32;68511;-59
2023/06/23 15:14:47;;;;;;;4.82;1.98;;;;;;;;;;4382579;32;67762;-60
2023/06/23 15:17:35;;;;;;;2.85;1.60;;;;;;;;;;4392953;32;71045;-58
2023/06/23 15:20:22;;;;;;;4.72;1.90;;;;;;;;;;4393513;32;65928;-58
2023/06/23 15:23:09;;;;;;;3.85;1.83;;;;;;;;;;4393585;32;66972;-58
2023/06/23 15:25:55;;;;;;;2.83;2.05;;;;;;;;;;4390498;32;67425;-60
2023/06/23 15:28:42;;;;;;;;;;;;;;;;;;4401515;32;69782;-58
2023/06/23 15:31:29;;;;;;;3.65;2.00;;;;;;;;;;4369269;32;64665;-60
2023/06/23 15:34:16;;;;;;;2.97;2.00;;;;;;;;;;4369129;32;68643;-57
2023/06/23 15:37:03;;;;;;;;;;;;;;;;;;4369880;32;61402;-65
2023/06/23 15:39:50;;;;;;;2.37;1.75;;;;;;;;;;4390609;32;69693;-59
2023/06/23 15:42:36;;;;;;;;;;;;;;;;;;4393855;32;69566;-59
2023/06/23 15:45:23;;;;;;;3.60;2.00;;;;;;;;;;4392607;32;65317;-58
2023/06/23 15:48:10;;;;;;;;;;;;;;;;;;4383211;32;71626;-59
2023/06/23 15:50:57;;;;;;;4.50;2.30;;;;;;;;;;4393370;32;70447;-59
2023/06/23 15:53:44;;;;;;;2.47;1.77;;;;;;;;;;4392803;32;69511;-59
2023/06/23 15:56:31;;;;;;;4.05;2.20;;;;;;;;;;4379101;32;68239;-60
2023/06/23 15:59:17;;;;;;;3.50;1.90;;;;;;;;;;4381878;32;71826;-59
2023/06/23 16:02:05;;;;;;;2.45;1.85;;;;;;;;;;4392905;32;66313;-58
2023/06/23 16:04:52;;;;;;;3.95;2.45;;;;;;;;;;4392672;32;67779;-59
2023/06/23 16:07:38;;;;;;;;;;;;;;;;;;4382469;32;60185;-58
2023/06/23 16:10:26;;;;;;;3.15;2.28;;;;;;;;;;4390125;32;70554;-57
2023/06/23 16:13:13;;;;;;;5.00;2.40;;;;;;;;;;4393902;32;69737;-58
2023/06/23 16:16:01;;;;;;;3.97;2.37;;;;;;;;;;4372408;32;65786;-58
2023/06/23 16:18:47;;;;;;;4.30;2.58;;;;;;;;;;4393319;32;59368;-59
2023/06/23 16:21:34;;;;;;;3.97;2.12;;;;;;;;;;4392320;32;69826;-59
2023/06/23 16:24:21;;;;;;;3.67;1.90;;;;;;;;;;4393211;32;69500;-58
2023/06/23 16:27:08;;;;;;;4.68;2.55;;;;;;;;;;4403453;32;67453;-59
2023/06/23 16:29:55;;;;;;;;;;;;;;;;;;4403216;32;71883;-59
2023/06/23 16:32:42;;;;;;;3.12;2.00;;;;;;;;;;4390331;32;66890;-59
2023/06/23 16:35:28;;;;;;;4.72;2.03;;;;;;;;;;4381809;32;66961;-59
2023/06/23 16:38:15;;;;;;;;;;;;;;;;;;4403249;32;66726;-59
2023/06/23 16:41:01;;;;;;;4.30;2.58;;;;;;;;;;4403235;32;70605;-59
2023/06/23 16:43:48;;;;;;;6.32;3.30;;;;;;;;;;4389333;32;64366;-59
2023/06/23 16:46:35;;;;;;;4.05;2.42;;;;;;;;;;4391801;32;67937;-57
2023/06/23 16:49:21;;;;;;;;;;;;;;;;;;4392778;32;59332;-58
2023/06/23 16:52:09;;;;;;;4.82;2.42;;;;;;;;;;4392078;32;69093;-58
2023/06/23 16:54:56;;;;;;;4.35;2.67;;;;;;;;;;4391790;32;68880;-58
2023/06/23 16:57:42;;;;;;;3.58;2.37;;;;;;;;;;4368269;32;68633;-58
2023/06/23 17:00:30;;;;;;;4.28;2.37;;;;;;;;;;4392059;32;71694;-57
2023/06/23 17:03:16;;;;;;;3.70;2.55;;;;;;;;;;4367566;32;71316;-59
2023/06/23 17:06:04;;;;;;;4.80;2.75;;;;;;;;;;4392108;32;69674;-58